Time;durP1;ratioP1;P1;durP2;ratioP2;P2;SDS_P1;SDS_P2;PMS_P1;PMS_P2;Temp;Humidity;BMP_temperature;BMP_pressure;BME280_temperature;BME280_humidity;BME280_pressure;Samples;Min_cycle;Max_cycle;Signal;HPM_P1;HPM_P2
2024/01/22 00:01:41;;;;;;;1999.90;999.90;;;-2.70;94.10;;;;;;5001905;28;20117;-72
2024/01/22 00:04:07;;;;;;;1999.90;999.90;;;-2.60;94.30;;;;;;4984810;28;20042;-72
2024/01/22 00:06:39;;;;;;;1999.90;999.90;;;-2.60;93.90;;;;;;4986657;28;20042;-72
2024/01/22 00:09:05;;;;;;;1999.90;999.90;;;-2.50;94.50;;;;;;5004914;28;20030;-71
2024/01/22 00:11:31;;;;;;;1999.90;999.90;;;-2.50;93.90;;;;;;5005402;28;20562;-72
2024/01/22 00:13:58;;;;;;;1999.90;999.90;;;-2.60;94.10;;;;;;5004646;28;20096;-72
2024/01/22 00:16:24;;;;;;;1999.90;999.90;;;-2.60;94.70;;;;;;4987942;28;20128;-72
2024/01/22 00:18:50;;;;;;;1999.90;999.90;;;-2.60;94.40;;;;;;5003198;28;20113;-72
2024/01/22 00:21:16;;;;;;;1999.90;999.90;;;-2.50;94.40;;;;;;5002540;28;20042;-72
2024/01/22 00:23:41;;;;;;;1999.90;999.90;;;-2.50;94.00;;;;;;4998668;28;20093;-71
2024/01/22 00:26:13;;;;;;;1999.90;999.90;;;-2.50;94.30;;;;;;5011363;28;20041;-72
2024/01/22 00:28:41;;;;;;;1999.90;999.90;;;-2.60;94.40;;;;;;4977169;28;20069;-71
2024/01/22 00:31:06;;;;;;;1999.90;999.90;;;-2.60;94.50;;;;;;4976333;28;20034;-71
2024/01/22 00:33:32;;;;;;;1999.90;999.90;;;-2.70;94.30;;;;;;5003843;28;20049;-71
2024/01/22 00:35:58;;;;;;;1999.90;999.90;;;-2.60;94.20;;;;;;5009007;28;20393;-72
2024/01/22 00:38:23;;;;;;;1999.90;999.90;;;-2.60;93.40;;;;;;5008573;28;20574;-72
2024/01/22 00:40:49;;;;;;;1999.90;999.90;;;-2.60;94.50;;;;;;5000680;28;20041;-71
2024/01/22 00:43:16;;;;;;;1999.90;999.90;;;-2.70;94.40;;;;;;4991936;28;20034;-70
2024/01/22 00:45:42;;;;;;;1999.90;999.90;;;-2.80;94.30;;;;;;4988953;28;20124;-71
2024/01/22 00:48:07;;;;;;;1999.90;999.90;;;-2.60;94.50;;;;;;4991502;28;20125;-71
2024/01/22 00:50:33;;;;;;;1999.90;999.90;;;-2.70;94.40;;;;;;5004571;28;20042;-71
2024/01/22 00:52:59;;;;;;;1999.90;999.90;;;-2.70;94.60;;;;;;5006987;28;20048;-72
2024/01/22 00:55:24;;;;;;;1999.90;999.90;;;-2.80;94.40;;;;;;4971469;28;20100;-72
2024/01/22 00:57:52;;;;;;;1999.90;999.90;;;-2.90;93.70;;;;;;5004186;28;20076;-72
2024/01/22 01:00:17;;;;;;;1999.90;999.90;;;-2.80;93.90;;;;;;5003942;28;20047;-72
2024/01/22 01:03:03;;;;;;;1999.90;999.90;;;-2.70;94.50;;;;;;5002830;28;20130;-72
2024/01/22 01:05:29;;;;;;;1999.90;999.90;;;-2.70;94.50;;;;;;5004133;28;20137;-72
2024/01/22 01:07:54;;;;;;;1999.90;999.90;;;-2.90;94.60;;;;;;4989517;28;20117;-72
2024/01/22 01:10:20;;;;;;;1999.90;999.90;;;-2.80;94.30;;;;;;5007955;28;20096;-72
2024/01/22 01:12:46;;;;;;;1999.90;999.90;;;-2.80;94.50;;;;;;5003494;28;20030;-71
2024/01/22 01:15:11;;;;;;;1999.90;999.90;;;-2.70;95.10;;;;;;5008087;28;20034;-72
2024/01/22 01:17:37;;;;;;;1999.90;999.90;;;-2.80;94.40;;;;;;5006504;28;20140;-72
2024/01/22 01:20:04;;;;;;;1999.90;999.90;;;-2.90;94.80;;;;;;5002671;28;20061;-71
2024/01/22 01:22:31;;;;;;;1999.90;999.90;;;-2.90;95.00;;;;;;5011102;28;20116;-71
2024/01/22 01:24:57;;;;;;;1999.90;999.90;;;-2.90;95.30;;;;;;4990485;28;20069;-72
2024/01/22 01:27:22;;;;;;;1999.90;999.90;;;-2.90;95.50;;;;;;5006962;28;20058;-71
2024/01/22 01:29:49;;;;;;;1999.90;999.90;;;-2.80;94.90;;;;;;4986700;28;20038;-70
2024/01/22 01:32:15;;;;;;;1999.90;999.90;;;-2.80;95.30;;;;;;4992758;28;20037;-72
2024/01/22 01:34:40;;;;;;;1999.90;999.90;;;-2.80;95.30;;;;;;4991790;28;20388;-73
2024/01/22 01:37:06;;;;;;;1999.90;999.90;;;-2.90;95.30;;;;;;5004965;28;20616;-71
2024/01/22 01:39:32;;;;;;;1999.90;999.90;;;-2.80;95.50;;;;;;5005404;28;20041;-71
2024/01/22 01:41:57;;;;;;;1999.90;999.90;;;-2.90;95.20;;;;;;4990164;28;20045;-71
2024/01/22 01:44:38;;;;;;;1999.90;999.90;;;-2.90;94.90;;;;;;5002900;28;20401;-70
2024/01/22 01:47:05;;;;;;;1999.90;999.90;;;-3.00;95.40;;;;;;4990432;28;20056;-71
2024/01/22 01:49:30;;;;;;;1999.90;999.90;;;-3.00;95.40;;;;;;5005862;28;20042;-72
2024/01/22 01:51:57;;;;;;;1999.90;999.90;;;-2.90;95.30;;;;;;5004909;28;20045;-72
2024/01/22 01:54:27;;;;;;;1999.90;999.90;;;-2.80;95.50;;;;;;5006612;28;20041;-72
2024/01/22 01:56:53;;;;;;;1999.90;999.90;;;-2.80;95.60;;;;;;5006019;28;20048;-72
2024/01/22 01:59:19;;;;;;;1999.90;999.90;;;-2.90;95.40;;;;;;5004813;28;20121;-72
2024/01/22 02:01:45;;;;;;;1999.90;999.90;;;-2.90;95.80;;;;;;4988416;28;20033;-71
2024/01/22 02:04:10;;;;;;;1999.90;999.90;;;-2.90;95.80;;;;;;5006339;28;20045;-71
2024/01/22 02:06:36;;;;;;;1999.90;999.90;;;-2.90;95.70;;;;;;4988648;28;20042;-72
2024/01/22 02:09:02;;;;;;;1999.90;999.90;;;-2.80;95.50;;;;;;5006558;28;20070;-71
2024/01/22 02:11:29;;;;;;;1999.90;999.90;;;-2.60;95.50;;;;;;5006743;28;20034;-72
2024/01/22 02:13:55;;;;;;;1999.90;999.90;;;-2.70;95.70;;;;;;4989182;28;20546;-71
2024/01/22 02:16:21;;;;;;;1999.90;999.90;;;-2.70;95.60;;;;;;5007624;28;20054;-71
2024/01/22 02:18:47;;;;;;;1999.90;999.90;;;-2.60;95.30;;;;;;4991110;28;20081;-71
2024/01/22 02:21:14;;;;;;;1999.90;999.90;;;-2.70;95.50;;;;;;5009678;28;20036;-71
2024/01/22 02:23:40;;;;;;;1999.90;999.90;;;-2.60;95.60;;;;;;4987461;28;20030;-71
2024/01/22 02:26:05;;;;;;;1999.90;999.90;;;-2.50;95.40;;;;;;5004767;28;20038;-71
2024/01/22 02:28:32;;;;;;;1999.90;999.90;;;-2.50;95.50;;;;;;5002565;28;20415;-72
2024/01/22 02:30:58;;;;;;;1999.90;999.90;;;-2.60;95.40;;;;;;5008274;28;20129;-71
2024/01/22 02:33:24;;;;;;;1999.90;999.90;;;-2.70;94.90;;;;;;5006370;28;20038;-72
2024/01/22 02:35:50;;;;;;;1999.90;999.90;;;-2.70;94.90;;;;;;5006131;28;20045;-72
2024/01/22 02:38:15;;;;;;;1999.90;999.90;;;-2.60;94.60;;;;;;4988831;28;20041;-71
2024/01/22 02:40:41;;;;;;;1999.90;999.90;;;-2.50;94.90;;;;;;5004423;28;20037;-70
2024/01/22 02:43:07;;;;;;;1999.90;999.90;;;-2.40;95.10;;;;;;4985803;28;20400;-71
2024/01/22 02:45:32;;;;;;;1999.90;999.90;;;-2.30;95.20;;;;;;5005215;28;20479;-71
2024/01/22 02:47:58;;;;;;;1999.90;999.90;;;-2.40;94.60;;;;;;5003790;28;20042;-73
2024/01/22 02:50:23;;;;;;;1999.90;999.90;;;-2.30;95.10;;;;;;5004153;28;20517;-72
2024/01/22 02:52:50;;;;;;;1999.90;999.90;;;-2.40;95.30;;;;;;5002696;28;20479;-72
2024/01/22 02:55:16;;;;;;;1999.90;999.90;;;-2.30;94.60;;;;;;5002418;28;20499;-72
2024/01/22 02:57:41;;;;;;;1999.90;999.90;;;-2.30;94.80;;;;;;5005647;28;20038;-75
2024/01/22 03:00:08;;;;;;;1999.90;999.90;;;-2.30;94.40;;;;;;5003797;28;20041;-72
2024/01/22 03:02:33;;;;;;;1999.90;999.90;;;-2.30;95.20;;;;;;4984980;28;20074;-72
2024/01/22 03:04:59;;;;;;;1999.90;999.90;;;-2.50;94.90;;;;;;5001946;28;20500;-71
2024/01/22 03:07:25;;;;;;;1999.90;999.90;;;-2.30;95.10;;;;;;5004802;28;20053;-71
2024/01/22 03:09:50;;;;;;;1999.90;999.90;;;-2.30;94.50;;;;;;4983889;28;20120;-71
2024/01/22 03:12:16;;;;;;;1999.90;999.90;;;-2.20;93.90;;;;;;5004437;28;20551;-72
2024/01/22 03:14:42;;;;;;;1999.90;999.90;;;-1.90;93.50;;;;;;5010725;28;20037;-73
2024/01/22 03:17:09;;;;;;;1999.90;999.90;;;-2.00;94.30;;;;;;5004072;28;20076;-72
2024/01/22 03:19:36;;;;;;;1999.90;999.90;;;-1.90;93.20;;;;;;5008972;28;20050;-72
2024/01/22 03:22:02;;;;;;;1999.90;999.90;;;-1.80;93.30;;;;;;4986545;28;20038;-72
2024/01/22 03:24:28;;;;;;;1999.90;999.90;;;-1.80;93.20;;;;;;5008262;28;20068;-74
2024/01/22 03:26:53;;;;;;;1999.90;999.90;;;-1.90;93.00;;;;;;5007006;28;20035;-71
2024/01/22 03:29:19;;;;;;;1999.90;999.90;;;-1.80;92.80;;;;;;5006327;28;20030;-71
2024/01/22 03:31:45;;;;;;;1999.90;999.90;;;-1.80;92.80;;;;;;5011497;28;20033;-73
2024/01/22 03:34:11;;;;;;;1999.90;999.90;;;-1.70;92.50;;;;;;5008070;28;20726;-71
2024/01/22 03:36:37;;;;;;;1999.90;999.90;;;-1.60;92.60;;;;;;5002651;28;20648;-71
2024/01/22 03:39:03;;;;;;;1999.90;999.90;;;-1.60;91.80;;;;;;4989414;28;20049;-71
2024/01/22 03:41:29;;;;;;;1999.90;999.90;;;-1.50;90.30;;;;;;4994982;28;21618;-73
2024/01/22 03:43:55;;;;;;;1999.90;999.90;;;-1.40;90.10;;;;;;5009330;28;20049;-71
2024/01/22 03:46:22;;;;;;;1999.90;999.90;;;-1.40;91.30;;;;;;4988323;28;20516;-71
2024/01/22 03:48:47;;;;;;;1999.90;999.90;;;-1.50;91.10;;;;;;5007235;28;20052;-74
2024/01/22 03:51:13;;;;;;;1999.90;999.90;;;-1.40;91.40;;;;;;5010215;28;20042;-72
2024/01/22 03:53:39;;;;;;;1999.90;999.90;;;-1.20;90.50;;;;;;5007756;28;20042;-72
2024/01/22 03:56:05;;;;;;;1999.90;999.90;;;-1.20;89.60;;;;;;5009869;28;20038;-71
2024/01/22 03:58:33;;;;;;;1999.90;999.90;;;-1.10;91.20;;;;;;4986057;28;20046;-71
2024/01/22 04:00:59;;;;;;;1999.90;999.90;;;-1.00;91.50;;;;;;5010677;28;20055;-72
2024/01/22 04:03:25;;;;;;;1999.90;999.90;;;-1.00;89.90;;;;;;5009397;28;20041;-72
2024/01/22 04:05:50;;;;;;;1999.90;999.90;;;-0.80;90.50;;;;;;5012290;28;20412;-71
2024/01/22 04:08:16;;;;;;;1999.90;999.90;;;-0.90;89.50;;;;;;5010902;28;20061;-72
2024/01/22 04:10:43;;;;;;;1999.90;999.90;;;-1.00;90.60;;;;;;4997752;28;20030;-73
2024/01/22 04:13:08;;;;;;;1999.90;999.90;;;-0.90;90.80;;;;;;4979377;28;20057;-72
2024/01/22 04:15:34;;;;;;;1999.90;999.90;;;-0.90;90.60;;;;;;5008960;28;20073;-73
2024/01/22 04:18:00;;;;;;;1999.90;999.90;;;-0.80;90.70;;;;;;5005238;28;20346;-73
2024/01/22 04:20:26;;;;;;;1999.90;999.90;;;-0.80;89.90;;;;;;5006650;28;20427;-73
2024/01/22 04:22:52;;;;;;;1999.90;999.90;;;-0.80;89.70;;;;;;4988219;28;20179;-73
2024/01/22 04:25:18;;;;;;;1999.90;999.90;;;-0.70;90.00;;;;;;5009443;28;20053;-73
2024/01/22 04:27:43;;;;;;;1999.90;999.90;;;-0.70;86.80;;;;;;4992658;28;20133;-73
2024/01/22 04:30:10;;;;;;;1999.90;999.90;;;-0.60;90.40;;;;;;4979085;28;20142;-73
2024/01/22 04:32:36;;;;;;;1999.90;999.90;;;-0.60;89.60;;;;;;5008416;28;20078;-73
2024/01/22 04:35:04;;;;;;;1999.90;999.90;;;-0.50;89.30;;;;;;5008733;28;20490;-73
2024/01/22 04:37:30;;;;;;;1999.90;999.90;;;-0.50;90.70;;;;;;5009286;28;20496;-72
2024/01/22 04:40:07;;;;;;;1999.90;999.90;;;-0.60;90.70;;;;;;5005996;28;20056;-72
2024/01/22 04:42:32;;;;;;;1999.90;999.90;;;-0.60;90.50;;;;;;4993899;28;20042;-73
2024/01/22 04:44:59;;;;;;;1999.90;999.90;;;-0.70;89.80;;;;;;5009742;28;20041;-71
2024/01/22 04:47:25;;;;;;;1999.90;999.90;;;-0.50;90.20;;;;;;4992879;28;20096;-73
2024/01/22 04:49:51;;;;;;;1999.90;999.90;;;-0.40;91.10;;;;;;5013772;28;20046;-72
2024/01/22 04:52:16;;;;;;;1999.90;999.90;;;-0.30;90.30;;;;;;5010543;28;20442;-73
2024/01/22 04:54:42;;;;;;;1999.90;999.90;;;-0.30;89.00;;;;;;5008210;28;20040;-72
2024/01/22 04:57:08;;;;;;;1999.90;999.90;;;-0.30;89.50;;;;;;4989233;28;20096;-73
2024/01/22 04:59:33;;;;;;;1999.90;999.90;;;-0.20;89.00;;;;;;5016304;28;20126;-72
2024/01/22 05:01:59;;;;;;;1999.90;999.90;;;-0.20;90.00;;;;;;5012950;28;20109;-72
2024/01/22 05:04:25;;;;;;;1999.90;999.90;;;-0.20;89.30;;;;;;5008089;28;20038;-73
2024/01/22 05:06:50;;;;;;;1999.90;999.90;;;-0.30;88.40;;;;;;4984389;28;20385;-72
2024/01/22 05:09:16;;;;;;;1999.90;999.90;;;-0.30;89.50;;;;;;4996835;28;20046;-73
2024/01/22 05:11:45;;;;;;;1999.90;999.90;;;-0.20;90.30;;;;;;4993810;28;20044;-73
2024/01/22 05:14:11;;;;;;;1999.90;999.90;;;-0.10;91.00;;;;;;4989615;28;20095;-71
2024/01/22 05:16:37;;;;;;;1999.90;999.90;;;-0.10;90.70;;;;;;4987522;28;20512;-72
2024/01/22 05:19:03;;;;;;;1999.90;999.90;;;-0.10;90.10;;;;;;4992945;28;20041;-71
2024/01/22 05:21:28;;;;;;;1999.90;999.90;;;-0.20;88.80;;;;;;5013018;28;20042;-73
2024/01/22 05:23:54;;;;;;;1999.90;999.90;;;-0.10;89.00;;;;;;4989999;28;20047;-73
2024/01/22 05:26:20;;;;;;;1999.90;999.90;;;-0.20;89.40;;;;;;4994583;28;20050;-73
2024/01/22 05:28:46;;;;;;;1999.90;999.90;;;-0.30;91.40;;;;;;5012976;28;20048;-73
2024/01/22 05:31:13;;;;;;;1999.90;999.90;;;-0.30;91.00;;;;;;4977367;28;20520;-72
2024/01/22 05:33:38;;;;;;;1999.90;999.90;;;-0.30;90.50;;;;;;4992855;28;20105;-73
2024/01/22 05:36:05;;;;;;;1999.90;999.90;;;-0.30;91.00;;;;;;4986502;28;20575;-73
2024/01/22 05:38:30;;;;;;;1999.90;999.90;;;-0.30;90.00;;;;;;5009040;28;20121;-72
2024/01/22 05:40:56;;;;;;;1999.90;999.90;;;-0.30;89.80;;;;;;5012218;28;20141;-73
2024/01/22 05:43:21;;;;;;;1999.90;999.90;;;-0.30;90.80;;;;;;5009539;28;20030;-73
2024/01/22 05:45:47;;;;;;;1999.90;999.90;;;-0.30;90.70;;;;;;5010574;28;21334;-72
2024/01/22 05:48:13;;;;;;;1999.90;999.90;;;-0.30;90.40;;;;;;5003992;28;20578;-72
2024/01/22 05:50:38;;;;;;;1999.90;999.90;;;-0.40;91.10;;;;;;5007635;28;20555;-73
2024/01/22 05:53:04;;;;;;;1999.90;999.90;;;-0.40;91.50;;;;;;5005385;28;20034;-72
2024/01/22 05:55:30;;;;;;;1999.90;999.90;;;-0.40;90.50;;;;;;5005738;28;20050;-73
2024/01/22 05:57:56;;;;;;;1999.90;999.90;;;-0.40;91.20;;;;;;4989987;28;20046;-72
2024/01/22 06:00:21;;;;;;;1999.90;999.90;;;-0.30;90.20;;;;;;4991687;28;20044;-72
2024/01/22 06:02:47;;;;;;;1999.90;999.90;;;-0.20;90.30;;;;;;5006091;28;20096;-73
2024/01/22 06:05:13;;;;;;;1999.90;999.90;;;-0.20;90.30;;;;;;5005914;28;20041;-72
2024/01/22 06:07:39;;;;;;;1999.90;999.90;;;-0.10;90.00;;;;;;4986811;28;20037;-74
2024/01/22 06:10:06;;;;;;;1999.90;999.90;;;-0.10;90.80;;;;;;5007817;28;20125;-73
2024/01/22 06:12:32;;;;;;;1999.90;999.90;;;-0.10;91.60;;;;;;4990631;28;20048;-73
2024/01/22 06:14:58;;;;;;;1999.90;999.90;;;-0.10;89.90;;;;;;4987213;28;20415;-73
2024/01/22 06:17:24;;;;;;;1999.90;999.90;;;-0.20;90.50;;;;;;4948676;28;20058;-73
2024/01/22 06:19:50;;;;;;;1999.90;999.90;;;-0.20;90.00;;;;;;5006511;28;20053;-72
2024/01/22 06:22:18;;;;;;;1999.90;999.90;;;-0.10;90.80;;;;;;4989495;28;20085;-73
2024/01/22 06:24:44;;;;;;;1999.90;999.90;;;-0.10;91.00;;;;;;5008587;28;20038;-72
2024/01/22 06:27:10;;;;;;;1999.90;999.90;;;-0.10;90.20;;;;;;5005251;28;20033;-73
2024/01/22 06:29:35;;;;;;;1999.90;999.90;;;0.00;86.80;;;;;;5004576;28;20479;-72
2024/01/22 06:32:02;;;;;;;1999.90;999.90;;;0.00;89.80;;;;;;4987778;28;20378;-73
2024/01/22 06:34:27;;;;;;;1999.90;999.90;;;0.10;86.70;;;;;;5006880;28;20666;-72
2024/01/22 06:36:53;;;;;;;1999.90;999.90;;;0.10;90.40;;;;;;5004276;28;20050;-73
2024/01/22 06:39:19;;;;;;;1999.90;999.90;;;0.00;88.00;;;;;;5004515;28;20076;-75
2024/01/22 06:41:44;;;;;;;1999.90;999.90;;;0.00;90.20;;;;;;4989174;28;20057;-75
2024/01/22 06:44:10;;;;;;;1999.90;999.90;;;0.10;87.40;;;;;;5004849;28;20107;-77
2024/01/22 06:46:36;;;;;;;1999.90;999.90;;;0.20;90.30;;;;;;5007364;28;20029;-74
2024/01/22 06:49:02;;;;;;;1999.90;999.90;;;0.10;86.50;;;;;;5002281;28;20042;-73
2024/01/22 06:51:29;;;;;;;1999.90;999.90;;;0.20;89.70;;;;;;5005407;28;20045;-74
2024/01/22 06:53:56;;;;;;;1999.90;999.90;;;0.10;89.90;;;;;;5006673;28;20069;-73
2024/01/22 06:56:22;;;;;;;1999.90;999.90;;;0.20;87.90;;;;;;4986283;28;20045;-73
2024/01/22 06:58:48;;;;;;;1999.90;999.90;;;0.20;87.50;;;;;;4987528;28;20452;-74
2024/01/22 07:01:14;;;;;;;1999.90;999.90;;;0.30;88.10;;;;;;5006882;28;20037;-73
2024/01/22 07:03:40;;;;;;;1999.90;999.90;;;0.30;89.30;;;;;;5003443;28;20052;-73
2024/01/22 07:06:05;;;;;;;1999.90;999.90;;;0.30;90.00;;;;;;5007479;28;20139;-77
2024/01/22 07:08:31;;;;;;;1999.90;999.90;;;0.20;86.40;;;;;;5005409;28;20626;-76
2024/01/22 07:10:58;;;;;;;1999.90;999.90;;;0.20;86.70;;;;;;5004456;28;20045;-76
2024/01/22 07:13:23;;;;;;;1999.90;999.90;;;0.20;90.70;;;;;;4981058;28;20038;-76
2024/01/22 07:15:49;;;;;;;1999.90;999.90;;;0.10;89.60;;;;;;4986193;28;20551;-76
2024/01/22 07:18:15;;;;;;;1999.90;999.90;;;0.10;88.30;;;;;;4986555;28;20050;-76
2024/01/22 07:20:41;;;;;;;1999.90;999.90;;;0.20;86.90;;;;;;4991080;28;20124;-76
2024/01/22 07:23:07;;;;;;;1999.90;999.90;;;0.20;87.40;;;;;;5009707;28;20038;-75
2024/01/22 07:25:36;;;;;;;1999.90;999.90;;;0.30;86.40;;;;;;5008831;28;20125;-75
2024/01/22 07:28:05;;;;;;;1999.90;999.90;;;0.30;86.90;;;;;;4970643;28;20045;-76
2024/01/22 07:30:31;;;;;;;1999.90;999.90;;;0.30;88.40;;;;;;4988859;28;20073;-76
2024/01/22 07:32:57;;;;;;;1999.90;999.90;;;0.30;87.50;;;;;;4981523;28;20057;-75
2024/01/22 07:35:24;;;;;;;1999.90;999.90;;;0.30;89.00;;;;;;5002483;28;20034;-75
2024/01/22 07:37:50;;;;;;;1999.90;999.90;;;0.30;88.00;;;;;;5005470;28;20030;-75
2024/01/22 07:40:16;;;;;;;1999.90;999.90;;;0.30;86.20;;;;;;5005128;28;20030;-76
2024/01/22 07:42:42;;;;;;;1999.90;999.90;;;0.30;88.00;;;;;;4984508;28;20048;-75
2024/01/22 07:45:11;;;;;;;1999.90;999.90;;;0.30;88.00;;;;;;5005627;28;20042;-76
2024/01/22 07:47:38;;;;;;;1999.90;999.90;;;0.40;89.10;;;;;;5007274;28;20728;-76
2024/01/22 07:50:10;;;;;;;1999.90;999.90;;;0.40;87.90;;;;;;4975256;28;20147;-76
2024/01/22 07:52:37;;;;;;;1999.90;999.90;;;0.30;86.30;;;;;;5001852;28;20038;-76
2024/01/22 07:55:04;;;;;;;1999.90;999.90;;;0.40;90.00;;;;;;4985988;28;20408;-75
2024/01/22 07:57:29;;;;;;;1999.90;999.90;;;0.30;90.30;;;;;;4974767;28;20038;-77
2024/01/22 07:59:55;;;;;;;1999.90;999.90;;;0.40;87.20;;;;;;5008956;28;20591;-78
2024/01/22 08:02:21;;;;;;;1999.90;999.90;;;0.40;90.10;;;;;;4993586;28;20833;-74
2024/01/22 08:04:46;;;;;;;1999.90;999.90;;;0.30;90.60;;;;;;4987887;28;20088;-76
2024/01/22 08:07:12;;;;;;;1999.90;999.90;;;0.30;89.40;;;;;;4988752;28;20045;-74
2024/01/22 08:09:38;;;;;;;1999.90;999.90;;;0.40;90.00;;;;;;4992177;28;20212;-75
2024/01/22 08:12:04;;;;;;;1999.90;999.90;;;0.40;90.20;;;;;;4990816;28;20045;-75
2024/01/22 08:14:31;;;;;;;1999.90;999.90;;;0.40;89.70;;;;;;5005163;28;20033;-74
2024/01/22 08:16:57;;;;;;;1999.90;999.90;;;0.50;90.60;;;;;;5004438;28;20057;-75
2024/01/22 08:19:22;;;;;;;1999.90;999.90;;;0.50;91.40;;;;;;4991330;28;20038;-75
2024/01/22 08:21:49;;;;;;;1999.90;999.90;;;0.50;91.70;;;;;;5003529;28;20423;-74
2024/01/22 08:24:14;;;;;;;1999.90;999.90;;;0.50;90.50;;;;;;5003940;28;20033;-75
2024/01/22 08:26:40;;;;;;;1999.90;999.90;;;0.50;90.20;;;;;;4991459;28;20034;-74
2024/01/22 08:29:07;;;;;;;1999.90;999.90;;;0.50;89.50;;;;;;5004394;28;20393;-75
2024/01/22 08:31:32;;;;;;;1999.90;999.90;;;0.50;90.00;;;;;;4994170;28;20793;-75
2024/01/22 08:33:59;;;;;;;1999.90;999.90;;;0.50;90.40;;;;;;4977075;28;20041;-75
2024/01/22 08:36:25;;;;;;;1999.90;999.90;;;0.50;88.60;;;;;;4987386;28;20445;-76
2024/01/22 08:38:50;;;;;;;1999.90;999.90;;;0.60;91.00;;;;;;4971053;28;20044;-75
2024/01/22 08:41:16;;;;;;;1999.90;999.90;;;0.70;91.00;;;;;;5005624;28;20515;-75
2024/01/22 08:43:42;;;;;;;1999.90;999.90;;;0.80;90.20;;;;;;5001816;28;20042;-77
2024/01/22 08:46:07;;;;;;;1999.90;999.90;;;0.80;90.70;;;;;;4988477;28;20482;-78
2024/01/22 08:48:33;;;;;;;1999.90;999.90;;;0.90;90.00;;;;;;4986018;28;20068;-78
2024/01/22 08:50:59;;;;;;;1999.90;999.90;;;0.90;90.60;;;;;;4988855;28;20835;-77
2024/01/22 08:53:25;;;;;;;1999.90;999.90;;;0.90;90.00;;;;;;4972215;28;20038;-77
2024/01/22 08:55:51;;;;;;;1999.90;999.90;;;0.90;89.40;;;;;;5010303;28;20348;-77
2024/01/22 08:58:17;;;;;;;1999.90;999.90;;;0.90;90.30;;;;;;5011153;28;20489;-77
2024/01/22 09:00:43;;;;;;;1999.90;999.90;;;0.90;89.00;;;;;;4993682;28;20065;-74
2024/01/22 09:03:08;;;;;;;1999.90;999.90;;;0.90;90.30;;;;;;5006223;28;20080;-76
2024/01/22 09:05:34;;;;;;;1999.90;999.90;;;1.00;90.70;;;;;;5006767;28;20045;-75
2024/01/22 09:08:00;;;;;;;1999.90;999.90;;;1.00;90.90;;;;;;5006402;28;20034;-77
2024/01/22 09:10:26;;;;;;;1999.90;999.90;;;1.00;89.30;;;;;;4990890;28;20124;-75
2024/01/22 09:12:53;;;;;;;1999.90;999.90;;;1.10;92.30;;;;;;4987490;28;20066;-76
2024/01/22 09:15:19;;;;;;;1999.90;999.90;;;1.10;91.30;;;;;;5007270;28;20504;-76
2024/01/22 09:17:45;;;;;;;1999.90;999.90;;;1.20;88.50;;;;;;4975294;28;20064;-75
2024/01/22 09:20:12;;;;;;;1999.90;999.90;;;1.30;90.70;;;;;;4988613;28;20124;-76
2024/01/22 09:22:38;;;;;;;1999.90;999.90;;;1.30;91.60;;;;;;4990984;28;20042;-74
2024/01/22 09:25:05;;;;;;;1999.90;999.90;;;1.40;90.00;;;;;;4986069;28;20057;-73
2024/01/22 09:27:31;;;;;;;1999.90;999.90;;;1.50;90.40;;;;;;4976935;28;20040;-73
2024/01/22 09:29:58;;;;;;;1999.90;999.90;;;1.40;91.20;;;;;;5013217;28;20597;-74
2024/01/22 09:32:25;;;;;;;1999.90;999.90;;;1.40;91.70;;;;;;4987349;28;20081;-73
2024/01/22 09:34:51;;;;;;;1999.90;999.90;;;1.50;91.60;;;;;;5003946;28;20037;-73
2024/01/22 09:37:17;;;;;;;1999.90;999.90;;;1.50;91.30;;;;;;5011017;28;20468;-73
2024/01/22 09:39:44;;;;;;;1999.90;999.90;;;1.70;89.60;;;;;;4969870;28;20446;-74
2024/01/22 09:42:12;;;;;;;1999.90;999.90;;;1.80;92.50;;;;;;5005476;28;20034;-73
2024/01/22 09:44:40;;;;;;;1999.90;999.90;;;1.70;90.80;;;;;;5011657;28;20035;-73
2024/01/22 09:47:06;;;;;;;1999.90;999.90;;;1.80;88.90;;;;;;4991601;28;20038;-74
2024/01/22 09:49:31;;;;;;;1999.90;999.90;;;2.00;92.70;;;;;;4970971;28;20105;-73
2024/01/22 09:51:57;;;;;;;1999.90;999.90;;;2.00;88.70;;;;;;5006769;28;20084;-73
2024/01/22 09:54:28;;;;;;;1999.90;999.90;;;2.30;92.60;;;;;;5007056;28;20046;-73
2024/01/22 09:56:54;;;;;;;1999.90;999.90;;;2.40;90.40;;;;;;4993377;28;20065;-73
2024/01/22 09:59:24;;;;;;;1999.90;999.90;;;2.60;88.80;;;;;;4976677;28;20101;-72
2024/01/22 10:01:52;;;;;;;1999.90;999.90;;;2.50;86.60;;;;;;4991200;28;20137;-72
2024/01/22 10:04:18;;;;;;;1999.90;999.90;;;2.40;87.60;;;;;;5003803;28;20136;-73
2024/01/22 10:06:46;;;;;;;1999.90;999.90;;;2.30;89.00;;;;;;5010864;28;20026;-74
2024/01/22 10:09:15;;;;;;;1999.90;999.90;;;2.20;92.10;;;;;;4993874;28;20197;-73
2024/01/22 10:11:44;;;;;;;1999.90;999.90;;;2.30;91.00;;;;;;5005396;28;20036;-75
2024/01/22 10:14:10;;;;;;;1999.90;999.90;;;2.30;90.80;;;;;;5007736;28;20029;-75
2024/01/22 10:16:37;;;;;;;1999.90;999.90;;;2.20;91.00;;;;;;4987533;28;20034;-76
2024/01/22 10:19:07;;;;;;;1999.90;999.90;;;2.40;91.00;;;;;;5008490;28;20041;-74
2024/01/22 10:21:37;;;;;;;1999.90;999.90;;;2.60;90.20;;;;;;4986537;28;20690;-75
2024/01/22 10:24:08;;;;;;;1999.90;999.90;;;2.80;87.80;;;;;;4992104;28;20134;-76
2024/01/22 10:26:34;;;;;;;;;;;3.00;82.40;;;;;;5012274;28;20145;-76
2024/01/22 10:29:29;;;;;;;1999.90;999.90;;;3.20;80.40;;;;;;4991144;28;20015;-77
2024/01/22 10:32:00;;;;;;;1999.90;999.90;;;3.40;79.50;;;;;;5014972;28;20049;-77
2024/01/22 10:34:41;;;;;;;1999.90;999.90;;;3.40;77.30;;;;;;4991625;28;20124;-75
2024/01/22 10:37:08;;;;;;;1999.90;999.90;;;3.40;76.50;;;;;;5006448;28;20042;-77
2024/01/22 10:39:42;;;;;;;1999.90;999.90;;;3.60;76.00;;;;;;4988783;28;20038;-76
2024/01/22 10:42:13;;;;;;;1999.90;999.90;;;3.70;76.00;;;;;;4988643;28;20504;-76
2024/01/22 10:44:41;;;;;;;;;;;3.80;75.70;;;;;;4985467;28;20033;-78
2024/01/22 10:47:09;;;;;;;1999.90;999.90;;;3.80;76.00;;;;;;4971069;28;19944;-77
2024/01/22 10:49:35;;;;;;;1999.90;999.90;;;3.90;76.20;;;;;;4983000;28;20042;-76
2024/01/22 10:52:03;;;;;;;1999.90;999.90;;;3.80;76.00;;;;;;4987792;28;20676;-77
2024/01/22 10:54:33;;;;;;;1999.90;999.90;;;4.00;75.90;;;;;;4985181;28;20038;-77
2024/01/22 10:57:28;;;;;;;1999.90;999.90;;;4.10;74.80;;;;;;4989074;28;20057;-78
2024/01/22 10:59:59;;;;;;;1999.90;999.90;;;4.10;75.30;;;;;;5004097;28;20042;-78
2024/01/22 11:02:32;;;;;;;1999.90;999.90;;;4.30;74.90;;;;;;4990084;28;20053;-78
2024/01/22 11:05:14;;;;;;;1999.90;999.90;;;4.40;74.40;;;;;;4987972;28;20042;-77
2024/01/22 11:07:40;;;;;;;1999.90;999.90;;;4.70;74.70;;;;;;4989520;28;20038;-78
2024/01/22 11:10:09;;;;;;;1999.90;999.90;;;5.00;72.70;;;;;;4987099;28;20038;-78
2024/01/22 11:12:54;;;;;;;1999.90;999.90;;;5.00;72.60;;;;;;4968488;28;20050;-76
2024/01/22 11:15:20;;;;;;;1999.90;999.90;;;4.90;73.00;;;;;;5002049;28;20081;-78
2024/01/22 11:17:47;;;;;;;1999.90;999.90;;;4.80;73.10;;;;;;4984941;28;20068;-76
2024/01/22 11:20:17;;;;;;;1999.90;999.90;;;4.90;73.80;;;;;;4999957;28;20569;-76
2024/01/22 11:22:58;;;;;;;1999.90;999.90;;;4.70;73.00;;;;;;4986821;28;20732;-78
2024/01/22 11:25:33;;;;;;;1999.90;999.90;;;4.80;73.70;;;;;;5004728;28;20045;-88
2024/01/22 11:28:03;;;;;;;1999.90;999.90;;;4.80;74.40;;;;;;4999817;28;20038;-76
2024/01/22 11:30:35;;;;;;;1999.90;999.90;;;4.70;74.20;;;;;;4990065;28;20033;-77
2024/01/22 11:33:00;;;;;;;1999.90;999.90;;;4.90;74.30;;;;;;5007030;28;20046;-74
2024/01/22 11:35:37;;;;;;;1999.90;999.90;;;5.10;74.30;;;;;;4971269;28;20054;-74
2024/01/22 11:38:04;;;;;;;1999.90;999.90;;;5.10;73.90;;;;;;4983968;28;20034;-75
2024/01/22 11:40:55;;;;;;;1999.90;999.90;;;5.20;73.80;;;;;;5001512;28;20060;-75
2024/01/22 11:43:23;;;;;;;1999.90;999.90;;;5.50;73.60;;;;;;5003413;28;20088;-77
2024/01/22 11:45:51;;;;;;;1999.90;999.90;;;5.60;73.40;;;;;;5005040;28;20038;-76
2024/01/22 11:48:18;;;;;;;1999.90;999.90;;;5.50;74.10;;;;;;4989574;28;20616;-76
2024/01/22 11:51:02;;;;;;;1999.90;999.90;;;5.50;73.70;;;;;;5004800;28;20126;-75
2024/01/22 11:53:28;;;;;;;1999.90;999.90;;;5.70;73.00;;;;;;5004371;28;20033;-75
2024/01/22 11:56:05;;;;;;;1999.90;999.90;;;5.70;72.70;;;;;;5003519;28;20069;-75
2024/01/22 11:58:33;;;;;;;1999.90;999.90;;;5.80;72.60;;;;;;4985435;28;20047;-76
2024/01/22 12:01:06;;;;;;;1999.90;999.90;;;5.80;73.10;;;;;;4979591;28;20034;-76
2024/01/22 12:03:32;;;;;;;1999.90;999.90;;;5.90;72.10;;;;;;5000652;28;20129;-76